الصفحة الرئيسية
METAR-TAF:

METAR-TAF

مطار :

مطار واتاي الدولي

فيينتيان, لاوس

دائرة عرض: 17-57N, خط طول: 102-34E, ارتفاع: 171 متر

مراقبة الطقس الحالي

تاريخ ووقت الإصدار 34 دقيقة قبل الساعة 23:00UTC
ريح 2 عقدة من الشمال الشرقي
درجة الحرارة 24°درجة مئوية
الرطوبة 100%
ضغط 1014 hPa
الرؤية: 5000 متر
غيوم متفرقة على ارتفاع 4000 قدم
غيوم متفرقة على ارتفاع 20000 قدم
غشاء

METAR: VLVT 202300Z 04002KT 5000 BR SCT040 SCT200 24/24 Q1014 NOSIG

زمن: 06:34 (23:34 UTC)

توقعات

تاريخ ووقت الإصدار 6ساعات و 34 دقيقة قبل الساعة 17:00UTC
التوقعات صالحة من20 الساعة 18 UTC إلى 21 الساعة 18 UTC
ريح 4 عقدة من الشرق
الرؤية: 8000 متر
غيوم متفرقة على ارتفاع 2000 قدم
غيوم متفرقة على ارتفاع 20000 قدم
مؤقت
من 20 الساعة 18 UTC إلى 20 الساعة 22 UTC
الرؤية: 3000 متر
غيوم متفرقة على ارتفاع 4000 قدم
غشاء

TAF: VLVT 201700Z 2018/2118 09004KT 8000 SCT020 SCT200 TEMPO 2018/2022 3000 BR SCT040

أرصاد الطقس والتوقعات من أكثر من 4000 مطار (تقارير الطقس للمطار METAR والتنبؤ بالطقس بالمطارTAF).

المحطات المتاحة هي النقط الصفراء والحمراء على الخريطة.

حرك المؤشر فوق النقطة لمعرفة اسم المحطة.

ثم انقر لمعرفة أرصاد وتوقعات الطقس.

لتغيير الخارطة: اضغط على الأزرار الخضراء مع رمز الصليب الأسود للتكبير. على الزر الأخضر مع شرطة للتصغير، أو على الأسهم الخضراء للخرائط المجاورة.


METAR-TAF: